createdAt,value
2019-02-24T00:00:45.689Z,26.00
2019-02-24T00:01:28.972Z,26.00
2019-02-24T00:02:07.644Z,26.00
2019-02-24T00:02:47.167Z,26.10
2019-02-24T00:03:26.140Z,26.10
2019-02-24T00:04:04.756Z,26.10
2019-02-24T00:04:44.459Z,26.10
2019-02-24T00:05:23.057Z,26.10
2019-02-24T00:06:01.726Z,26.10
2019-02-24T00:06:40.435Z,26.00
2019-02-24T00:07:19.273Z,26.00
2019-02-24T00:07:57.987Z,25.90
2019-02-24T00:08:36.668Z,25.80
2019-02-24T00:09:15.685Z,25.80
2019-02-24T00:09:54.831Z,25.70
2019-02-24T00:10:34.169Z,25.70
2019-02-24T00:11:13.498Z,25.70
2019-02-24T00:11:52.356Z,25.60
2019-02-24T00:12:31.084Z,25.60
2019-02-24T00:13:09.778Z,25.70
2019-02-24T00:13:48.391Z,25.70
2019-02-24T00:14:27.279Z,25.70
2019-02-24T00:15:05.887Z,25.80
2019-02-24T00:15:45.131Z,25.80
2019-02-24T00:16:24.335Z,25.80
2019-02-24T00:17:03.753Z,25.90
2019-02-24T00:17:44.561Z,25.90
2019-02-24T00:18:24.073Z,25.90
2019-02-24T00:19:03.827Z,25.90
2019-02-24T00:19:43.057Z,25.90
2019-02-24T00:20:22.271Z,25.90
2019-02-24T00:21:01.048Z,26.00
2019-02-24T00:21:39.703Z,26.00
2019-02-24T00:22:18.403Z,26.00
2019-02-24T00:22:57.091Z,26.00
2019-02-24T00:23:36.078Z,26.00
2019-02-24T00:24:15.046Z,26.00
2019-02-24T00:24:54.292Z,26.10
2019-02-24T00:25:33.311Z,26.00
2019-02-24T00:26:12.503Z,26.00
2019-02-24T00:26:51.185Z,26.00
2019-02-24T00:27:30.156Z,26.00
2019-02-24T00:28:10.322Z,25.90
2019-02-24T00:28:48.945Z,25.90
2019-02-24T00:29:27.630Z,25.80
2019-02-24T00:30:06.433Z,25.80
2019-02-24T00:30:45.441Z,25.80
2019-02-24T00:31:24.603Z,25.70
2019-02-24T00:32:03.687Z,25.60
2019-02-24T00:32:42.411Z,25.60
2019-02-24T00:33:21.254Z,25.60
2019-02-24T00:34:00.462Z,25.60
2019-02-24T00:34:39.156Z,25.70
2019-02-24T00:35:17.851Z,25.70
2019-02-24T00:35:56.960Z,25.70
2019-02-24T00:36:36.192Z,25.80
2019-02-24T00:37:14.896Z,25.80
2019-02-24T00:37:53.594Z,25.80
2019-02-24T00:38:32.268Z,25.90
2019-02-24T00:39:11.781Z,25.90
2019-02-24T00:39:50.557Z,25.90
2019-02-24T00:40:29.442Z,25.90
2019-02-24T00:41:08.396Z,25.90
2019-02-24T00:41:47.779Z,25.90
2019-02-24T00:42:26.873Z,26.00
2019-02-24T00:43:05.953Z,26.00
2019-02-24T00:43:44.855Z,26.00
2019-02-24T00:44:25.512Z,26.00
2019-02-24T00:45:04.211Z,26.00
2019-02-24T00:45:43.717Z,26.00
2019-02-24T00:46:22.435Z,26.00
2019-02-24T00:47:01.033Z,26.00
2019-02-24T00:47:39.660Z,25.90
2019-02-24T00:48:18.850Z,25.90
2019-02-24T00:48:57.911Z,25.80
2019-02-24T00:49:37.052Z,25.80
2019-02-24T00:50:16.059Z,25.80
2019-02-24T00:50:55.360Z,25.70
2019-02-24T00:51:34.742Z,25.70
2019-02-24T00:52:14.260Z,25.60
2019-02-24T00:52:52.991Z,25.60
2019-02-24T00:53:31.750Z,25.60
2019-02-24T00:54:10.551Z,25.60
2019-02-24T00:54:49.327Z,25.60
2019-02-24T00:55:28.034Z,25.70
2019-02-24T00:56:06.764Z,25.70
2019-02-24T00:56:45.505Z,25.70
2019-02-24T00:57:24.224Z,25.80
2019-02-24T00:58:02.983Z,25.80
2019-02-24T00:58:43.041Z,25.80
2019-02-24T00:59:22.043Z,25.80
2019-02-24T01:00:00.651Z,25.80
2019-02-24T01:00:39.584Z,25.90
2019-02-24T01:01:18.327Z,25.90
2019-02-24T01:01:57.023Z,25.90
2019-02-24T01:02:35.735Z,25.90
2019-02-24T01:03:14.370Z,25.90
2019-02-24T01:03:53.235Z,26.00
2019-02-24T01:04:32.004Z,26.00
2019-02-24T01:05:10.818Z,26.00
2019-02-24T01:05:49.556Z,26.00
2019-02-24T01:06:28.347Z,26.00
2019-02-24T01:07:07.243Z,25.90
2019-02-24T01:07:46.027Z,25.90
2019-02-24T01:08:24.905Z,25.80
2019-02-24T01:09:03.607Z,25.80
2019-02-24T01:09:42.398Z,25.70
2019-02-24T01:10:21.203Z,25.60
2019-02-24T01:11:00.009Z,25.60
2019-02-24T01:11:38.796Z,25.60
2019-02-24T01:12:17.586Z,25.50
2019-02-24T01:12:56.590Z,25.50
2019-02-24T01:13:35.288Z,25.50
2019-02-24T01:14:15.078Z,25.50
2019-02-24T01:14:53.715Z,25.50
2019-02-24T01:15:32.322Z,25.60
2019-02-24T01:16:11.150Z,25.60
2019-02-24T01:16:50.707Z,25.60
2019-02-24T01:17:29.481Z,25.70
2019-02-24T01:18:08.178Z,25.70
2019-02-24T01:18:46.911Z,25.70
2019-02-24T01:19:25.602Z,25.80
2019-02-24T01:20:04.445Z,25.80
2019-02-24T01:20:43.191Z,25.80
2019-02-24T01:21:21.978Z,25.80
2019-02-24T01:22:00.790Z,25.80
2019-02-24T01:22:39.972Z,25.70
2019-02-24T01:23:18.639Z,25.70
2019-02-24T01:23:57.325Z,25.60
2019-02-24T01:24:36.019Z,25.60
2019-02-24T01:25:14.718Z,25.60
2019-02-24T01:25:53.388Z,25.50
2019-02-24T01:26:32.302Z,25.50
2019-02-24T01:27:12.647Z,25.50
2019-02-24T01:27:51.561Z,25.40
2019-02-24T01:28:30.773Z,25.50
2019-02-24T01:29:10.127Z,25.50
2019-02-24T01:29:49.422Z,25.50
2019-02-24T01:30:28.666Z,25.50
2019-02-24T01:31:08.002Z,25.60
2019-02-24T01:31:46.696Z,25.60
2019-02-24T01:32:25.352Z,25.70
2019-02-24T01:33:04.043Z,25.70
2019-02-24T01:33:42.652Z,25.70
2019-02-24T01:34:21.851Z,25.80
2019-02-24T01:35:01.393Z,25.70
2019-02-24T01:35:40.293Z,25.70
2019-02-24T01:36:19.588Z,25.70
2019-02-24T01:36:58.280Z,25.60
2019-02-24T01:37:37.862Z,25.60
2019-02-24T01:38:17.172Z,25.60
2019-02-24T01:38:56.318Z,25.60
2019-02-24T01:39:34.946Z,25.60
2019-02-24T01:40:13.707Z,25.60
2019-02-24T01:40:52.410Z,25.60
2019-02-24T01:41:31.118Z,25.50
2019-02-24T01:42:10.319Z,25.50
2019-02-24T01:42:49.834Z,25.50
2019-02-24T01:43:29.681Z,25.60
2019-02-24T01:44:08.311Z,25.60
2019-02-24T01:44:47.677Z,25.60
2019-02-24T01:45:26.439Z,25.70
2019-02-24T01:46:05.348Z,25.70
2019-02-24T01:46:44.270Z,25.70
2019-02-24T01:47:22.967Z,25.70
2019-02-24T01:48:01.760Z,25.80
2019-02-24T01:48:40.578Z,25.70
2019-02-24T01:49:19.287Z,25.70
2019-02-24T01:49:57.915Z,25.70
2019-02-24T01:50:37.052Z,25.70
2019-02-24T01:51:15.777Z,25.70
2019-02-24T01:51:54.753Z,25.60
2019-02-24T01:52:33.934Z,25.60
2019-02-24T01:53:13.205Z,25.50
2019-02-24T01:53:52.254Z,25.50
2019-02-24T01:54:31.747Z,25.50
2019-02-24T01:55:10.458Z,25.50
2019-02-24T01:55:49.859Z,25.50
2019-02-24T01:56:30.067Z,25.50
2019-02-24T01:57:08.800Z,25.50
2019-02-24T01:57:47.518Z,25.50
2019-02-24T01:58:34.577Z,25.50
2019-02-24T01:59:07.030Z,25.60
2019-02-24T01:59:46.496Z,25.60
2019-02-24T02:00:25.211Z,25.60
2019-02-24T02:01:04.240Z,25.70
2019-02-24T02:01:43.741Z,25.70
2019-02-24T02:02:23.064Z,25.70
2019-02-24T02:03:02.464Z,25.80
2019-02-24T02:03:41.223Z,25.70
2019-02-24T02:04:20.011Z,25.70
2019-02-24T02:04:58.773Z,25.70
2019-02-24T02:05:37.423Z,25.70
2019-02-24T02:06:16.060Z,25.80
2019-02-24T02:06:54.838Z,25.80
2019-02-24T02:07:34.312Z,25.80
2019-02-24T02:08:13.339Z,25.80
2019-02-24T02:08:52.842Z,25.80
2019-02-24T02:09:32.321Z,25.70
2019-02-24T02:10:11.063Z,25.70
2019-02-24T02:10:50.702Z,25.70
2019-02-24T02:11:30.064Z,25.70
2019-02-24T02:12:08.729Z,25.60
2019-02-24T02:12:47.388Z,25.60
2019-02-24T02:13:26.109Z,25.50
2019-02-24T02:14:05.208Z,25.50
2019-02-24T02:14:43.939Z,25.50
2019-02-24T02:15:22.690Z,25.50
2019-02-24T02:16:02.334Z,25.50
2019-02-24T02:16:41.332Z,25.60
2019-02-24T02:17:19.949Z,25.60
2019-02-24T02:17:58.562Z,25.60
2019-02-24T02:18:37.394Z,25.60
2019-02-24T02:19:16.052Z,25.70
2019-02-24T02:19:54.767Z,25.70
2019-02-24T02:20:33.453Z,25.80
2019-02-24T02:21:12.310Z,25.80
2019-02-24T02:21:51.479Z,25.80
2019-02-24T02:22:31.445Z,25.80
2019-02-24T02:23:10.341Z,25.70
2019-02-24T02:23:49.104Z,25.70
2019-02-24T02:24:27.868Z,25.70
2019-02-24T02:25:06.915Z,25.60
2019-02-24T02:25:45.880Z,25.60
2019-02-24T02:26:25.372Z,25.60
2019-02-24T02:27:04.035Z,25.60
2019-02-24T02:27:42.652Z,25.60
2019-02-24T02:28:21.334Z,25.50
2019-02-24T02:29:00.100Z,25.50
2019-02-24T02:29:38.726Z,25.60
2019-02-24T02:30:17.575Z,25.60
2019-02-24T02:30:56.631Z,25.60
2019-02-24T02:31:35.673Z,25.70
2019-02-24T02:32:15.463Z,25.70
2019-02-24T02:32:56.022Z,25.70
2019-02-24T02:33:35.216Z,25.80
2019-02-24T02:34:15.568Z,25.80
2019-02-24T02:34:54.240Z,25.80
2019-02-24T02:35:32.965Z,25.80
2019-02-24T02:36:12.367Z,25.90
2019-02-24T02:36:52.266Z,25.90
2019-02-24T02:37:31.174Z,26.00
2019-02-24T02:38:09.907Z,26.00
2019-02-24T02:38:48.564Z,26.00
2019-02-24T02:39:27.469Z,26.00
2019-02-24T02:40:06.407Z,26.00
2019-02-24T02:40:45.572Z,26.10
2019-02-24T02:41:24.943Z,26.10
2019-02-24T02:42:03.846Z,26.10
2019-02-24T02:42:43.190Z,26.20
2019-02-24T02:43:22.630Z,26.20
2019-02-24T02:44:01.231Z,26.20
2019-02-24T02:44:39.971Z,26.20
2019-02-24T02:45:18.748Z,26.20
2019-02-24T02:45:57.630Z,26.20
2019-02-24T02:46:36.750Z,26.30
2019-02-24T02:47:15.805Z,26.30
2019-02-24T02:47:55.228Z,26.30
2019-02-24T02:48:34.489Z,26.30
2019-02-24T02:49:13.537Z,26.30
2019-02-24T02:49:53.105Z,26.30
2019-02-24T02:50:32.508Z,26.30
2019-02-24T02:51:11.695Z,26.40
2019-02-24T02:51:51.200Z,26.40
2019-02-24T02:52:29.959Z,26.40
2019-02-24T02:53:08.611Z,26.40
2019-02-24T02:53:47.973Z,26.40
2019-02-24T02:54:26.787Z,26.40
2019-02-24T02:55:05.882Z,26.40
2019-02-24T02:55:45.223Z,26.40
2019-02-24T02:56:24.305Z,26.50
2019-02-24T02:57:03.054Z,26.50
2019-02-24T02:57:41.804Z,26.50
2019-02-24T02:58:21.697Z,26.50
2019-02-24T02:59:00.568Z,26.50
2019-02-24T02:59:39.269Z,26.50
2019-02-24T03:00:36.965Z,26.60
2019-02-24T03:01:15.635Z,26.60
2019-02-24T03:01:54.451Z,26.60
2019-02-24T03:02:33.156Z,26.60
2019-02-24T03:03:11.783Z,26.60
2019-02-24T03:03:50.526Z,26.60
2019-02-24T03:04:29.266Z,26.60
2019-02-24T03:05:07.965Z,26.60
2019-02-24T03:05:56.707Z,26.60
2019-02-24T03:06:51.573Z,26.60
2019-02-24T03:07:46.226Z,26.70
2019-02-24T03:08:42.944Z,26.70
2019-02-24T03:09:21.689Z,26.70
2019-02-24T03:10:02.765Z,26.70
2019-02-24T03:10:40.614Z,26.70
2019-02-24T03:11:19.311Z,26.70
2019-02-24T03:11:57.988Z,26.80
2019-02-24T03:12:36.771Z,26.80
2019-02-24T03:13:15.501Z,26.80
2019-02-24T03:13:54.466Z,26.80
2019-02-24T03:14:33.555Z,26.80
2019-02-24T03:15:12.357Z,26.80
2019-02-24T03:15:51.304Z,26.80
2019-02-24T03:16:30.723Z,26.80
2019-02-24T03:17:10.301Z,26.80
2019-02-24T03:17:49.937Z,26.80
2019-02-24T03:18:28.785Z,26.80
2019-02-24T03:19:07.519Z,26.90
2019-02-24T03:19:46.181Z,26.90
2019-02-24T03:20:25.157Z,26.90
2019-02-24T03:21:03.914Z,26.90
2019-02-24T03:21:45.265Z,26.90
2019-02-24T03:22:24.117Z,26.90
2019-02-24T03:23:02.880Z,26.90
2019-02-24T03:23:41.947Z,26.90
2019-02-24T03:24:20.768Z,26.90
2019-02-24T03:24:59.713Z,26.90
2019-02-24T03:25:38.647Z,27.00
2019-02-24T03:26:17.685Z,27.00
2019-02-24T03:26:56.301Z,27.00
2019-02-24T03:27:36.235Z,27.00
2019-02-24T03:28:14.962Z,27.00
2019-02-24T03:28:53.625Z,27.00
2019-02-24T03:29:32.529Z,27.00
2019-02-24T03:30:11.397Z,27.00
2019-02-24T03:30:50.899Z,27.00
2019-02-24T03:31:32.338Z,27.10
2019-02-24T03:32:11.771Z,27.10
2019-02-24T03:32:50.538Z,27.10
2019-02-24T03:33:29.834Z,27.10
2019-02-24T03:34:08.792Z,27.10
2019-02-24T03:34:47.511Z,27.10
2019-02-24T03:35:26.869Z,27.10
2019-02-24T03:36:05.534Z,27.10
2019-02-24T03:36:45.341Z,27.10
2019-02-24T03:37:24.643Z,27.10
2019-02-24T03:38:03.369Z,27.10
2019-02-24T03:38:42.174Z,27.20
2019-02-24T03:39:20.931Z,27.20
2019-02-24T03:40:00.091Z,27.20
2019-02-24T03:40:39.113Z,27.20
2019-02-24T03:41:17.786Z,27.20
2019-02-24T03:41:56.515Z,27.20
2019-02-24T03:42:35.156Z,27.20
2019-02-24T03:43:14.520Z,27.20
2019-02-24T03:43:54.007Z,27.20
2019-02-24T03:44:32.728Z,27.20
2019-02-24T03:45:12.181Z,27.20
2019-02-24T03:45:52.658Z,27.20
2019-02-24T03:46:31.388Z,27.30
2019-02-24T03:47:10.622Z,27.30
2019-02-24T03:47:50.030Z,27.30
2019-02-24T03:48:28.815Z,27.30
2019-02-24T03:49:07.444Z,27.30
2019-02-24T03:49:46.086Z,27.30
2019-02-24T03:50:24.744Z,27.30
2019-02-24T03:51:03.561Z,27.40
2019-02-24T03:51:42.330Z,27.40
2019-02-24T03:52:21.542Z,27.40
2019-02-24T03:53:00.942Z,27.40
2019-02-24T03:53:40.244Z,27.40
2019-02-24T03:54:19.558Z,27.40
2019-02-24T03:54:58.330Z,27.40
2019-02-24T03:55:37.266Z,27.40
2019-02-24T03:56:15.955Z,27.40
2019-02-24T03:56:54.660Z,27.40
2019-02-24T03:57:33.356Z,27.40
2019-02-24T03:58:13.858Z,27.40
2019-02-24T03:58:53.135Z,27.40
2019-02-24T03:59:50.711Z,27.40
2019-02-24T04:00:29.368Z,27.50
2019-02-24T04:01:07.975Z,27.50
2019-02-24T04:01:46.793Z,27.50
2019-02-24T04:02:25.562Z,27.50
2019-02-24T04:03:04.349Z,27.50
2019-02-24T04:03:43.286Z,27.50
2019-02-24T04:04:22.698Z,27.50
2019-02-24T04:05:01.830Z,27.50
2019-02-24T04:05:41.226Z,27.50
2019-02-24T04:06:20.764Z,27.50
2019-02-24T04:07:00.060Z,27.50
2019-02-24T04:07:39.379Z,27.60
2019-02-24T04:08:18.690Z,27.60
2019-02-24T04:08:57.414Z,27.60
2019-02-24T04:09:36.147Z,27.60
2019-02-24T04:10:14.892Z,27.60
2019-02-24T04:10:54.139Z,27.60
2019-02-24T04:11:33.088Z,27.60
2019-02-24T04:12:12.272Z,27.60
2019-02-24T04:12:51.490Z,27.60
2019-02-24T04:13:30.255Z,27.60
2019-02-24T04:14:10.853Z,27.60
2019-02-24T04:14:50.187Z,27.70
2019-02-24T04:15:30.005Z,27.70
2019-02-24T04:16:09.592Z,27.70
2019-02-24T04:16:48.245Z,27.70
2019-02-24T04:17:26.969Z,27.70
2019-02-24T04:18:05.655Z,27.70
2019-02-24T04:18:44.339Z,27.70
2019-02-24T04:19:23.614Z,27.70
2019-02-24T04:20:02.810Z,27.70
2019-02-24T04:20:42.006Z,27.70
2019-02-24T04:21:21.255Z,27.80
2019-02-24T04:22:00.626Z,27.80
2019-02-24T04:22:39.393Z,27.80
2019-02-24T04:23:18.525Z,27.70
2019-02-24T04:23:57.264Z,27.80
2019-02-24T04:24:35.959Z,27.80
2019-02-24T04:25:15.007Z,27.80
2019-02-24T04:25:53.704Z,27.80
2019-02-24T04:26:33.013Z,27.80
2019-02-24T04:27:12.200Z,27.80
2019-02-24T04:27:50.913Z,27.80
2019-02-24T04:28:30.390Z,27.90
2019-02-24T04:29:09.124Z,27.90
2019-02-24T04:29:47.767Z,27.80
2019-02-24T04:30:26.814Z,27.90
2019-02-24T04:31:06.024Z,27.90
2019-02-24T04:31:45.403Z,27.90
2019-02-24T04:32:25.093Z,27.90
2019-02-24T04:33:03.756Z,27.90
2019-02-24T04:33:42.436Z,27.90
2019-02-24T04:34:21.403Z,27.90
2019-02-24T04:35:00.038Z,28.00
2019-02-24T04:35:38.775Z,27.90
2019-02-24T04:36:18.310Z,27.90
2019-02-24T04:36:57.028Z,27.90
2019-02-24T04:37:36.120Z,28.00
2019-02-24T04:38:16.070Z,28.00
2019-02-24T04:38:55.401Z,28.00
2019-02-24T04:39:34.561Z,28.00
2019-02-24T04:40:13.943Z,28.00
2019-02-24T04:40:53.428Z,28.00
2019-02-24T04:41:32.078Z,28.00
2019-02-24T04:42:10.723Z,28.00
2019-02-24T04:42:49.484Z,28.00
2019-02-24T04:43:28.157Z,28.00
2019-02-24T04:44:07.061Z,28.10
2019-02-24T04:44:46.224Z,28.10
2019-02-24T04:45:25.759Z,28.10
2019-02-24T04:46:05.112Z,28.10
2019-02-24T04:46:44.269Z,28.10
2019-02-24T04:47:23.651Z,28.10
2019-02-24T04:48:02.859Z,28.10
2019-02-24T04:48:41.529Z,28.10
2019-02-24T04:49:20.266Z,28.10
2019-02-24T04:49:59.016Z,28.10
2019-02-24T04:50:55.934Z,28.10
2019-02-24T04:51:34.919Z,28.10
2019-02-24T04:52:14.402Z,28.10
2019-02-24T04:52:53.064Z,28.10
2019-02-24T04:53:31.799Z,28.20
2019-02-24T04:54:10.393Z,28.20
2019-02-24T04:54:49.087Z,28.20
2019-02-24T04:55:27.768Z,28.20
2019-02-24T04:56:06.414Z,28.20
2019-02-24T04:56:45.192Z,28.20
2019-02-24T04:57:24.001Z,28.30
2019-02-24T04:58:02.707Z,28.20
2019-02-24T04:58:41.350Z,28.20
2019-02-24T04:59:20.143Z,28.20
2019-02-24T04:59:58.784Z,28.20
2019-02-24T05:00:37.581Z,28.20
2019-02-24T05:01:16.282Z,28.30
2019-02-24T05:01:54.922Z,28.30
2019-02-24T05:02:33.589Z,28.30
2019-02-24T05:03:12.315Z,28.30
2019-02-24T05:03:51.062Z,28.30
2019-02-24T05:04:29.784Z,28.30
2019-02-24T05:05:08.552Z,28.30
2019-02-24T05:05:47.261Z,28.30
2019-02-24T05:06:25.942Z,28.30
2019-02-24T05:07:05.159Z,28.30
2019-02-24T05:07:43.866Z,28.40
2019-02-24T05:08:22.473Z,28.40
2019-02-24T05:09:01.162Z,28.40
2019-02-24T05:09:39.959Z,28.40
2019-02-24T05:10:18.668Z,28.40
2019-02-24T05:10:57.558Z,28.40
2019-02-24T05:11:36.787Z,28.40
2019-02-24T05:12:15.468Z,28.40
2019-02-24T05:12:54.169Z,28.40
2019-02-24T05:13:33.054Z,28.40
2019-02-24T05:14:11.869Z,28.40
2019-02-24T05:14:50.514Z,28.50
2019-02-24T05:15:29.412Z,28.50
2019-02-24T05:16:08.322Z,28.50
2019-02-24T05:16:47.020Z,28.50
2019-02-24T05:17:25.843Z,28.50
2019-02-24T05:18:04.398Z,28.50
2019-02-24T05:18:43.084Z,28.50
2019-02-24T05:19:21.963Z,28.50
2019-02-24T05:20:00.676Z,28.50
2019-02-24T05:20:39.286Z,28.50
2019-02-24T05:21:18.095Z,28.50
2019-02-24T05:21:56.753Z,28.50
2019-02-24T05:22:35.524Z,28.60
2019-02-24T05:23:14.221Z,28.60
2019-02-24T05:23:52.960Z,28.60
2019-02-24T05:24:31.714Z,28.60
2019-02-24T05:25:10.422Z,28.60
2019-02-24T05:25:49.043Z,28.60
2019-02-24T05:26:28.302Z,28.60
2019-02-24T05:27:07.688Z,28.60
2019-02-24T05:27:47.085Z,28.60
2019-02-24T05:28:26.283Z,28.60
2019-02-24T05:29:04.995Z,28.60
2019-02-24T05:29:46.116Z,28.60
2019-02-24T05:30:24.856Z,28.60
2019-02-24T05:31:03.584Z,28.60
2019-02-24T05:31:43.581Z,28.60
2019-02-24T05:32:22.523Z,28.60
2019-02-24T05:33:01.384Z,28.70
2019-02-24T05:33:40.349Z,28.70
2019-02-24T05:34:19.397Z,28.70
2019-02-24T05:34:58.830Z,28.70
2019-02-24T05:35:38.359Z,28.70
2019-02-24T05:36:18.351Z,28.70
2019-02-24T05:36:57.074Z,28.70
2019-02-24T05:37:36.562Z,28.70
2019-02-24T05:38:15.233Z,28.70
2019-02-24T05:38:53.954Z,28.70
2019-02-24T05:39:32.618Z,28.60
2019-02-24T05:40:11.322Z,28.60
2019-02-24T05:40:50.336Z,28.60
2019-02-24T05:41:29.424Z,28.60
2019-02-24T05:42:08.716Z,28.50
2019-02-24T05:42:47.851Z,28.50
2019-02-24T05:43:27.460Z,28.50
2019-02-24T05:44:07.076Z,28.40
2019-02-24T05:44:46.207Z,28.40
2019-02-24T05:45:24.885Z,28.40
2019-02-24T05:46:03.649Z,28.40
2019-02-24T05:46:42.713Z,28.30
2019-02-24T05:47:21.455Z,28.30
2019-02-24T05:48:00.107Z,28.30
2019-02-24T05:48:38.895Z,28.30
2019-02-24T05:49:17.739Z,28.30
2019-02-24T05:49:56.655Z,28.20
2019-02-24T05:50:35.338Z,28.20
2019-02-24T05:51:14.074Z,28.20
2019-02-24T05:52:11.654Z,28.20
2019-02-24T05:52:50.684Z,28.20
2019-02-24T05:53:29.995Z,28.20
2019-02-24T05:54:09.197Z,28.20
2019-02-24T05:54:48.716Z,28.10
2019-02-24T05:55:27.920Z,28.10
2019-02-24T05:56:06.887Z,28.10
2019-02-24T05:56:46.142Z,28.00
2019-02-24T05:57:25.444Z,28.00
2019-02-24T05:58:04.096Z,28.00
2019-02-24T05:58:42.715Z,27.90
2019-02-24T05:59:21.351Z,27.90
2019-02-24T06:00:00.618Z,27.90
2019-02-24T06:00:39.813Z,27.90
2019-02-24T06:01:21.140Z,27.90
2019-02-24T06:01:59.983Z,27.80
2019-02-24T06:02:39.248Z,27.80
2019-02-24T06:03:18.729Z,27.80
2019-02-24T06:03:57.527Z,27.80
2019-02-24T06:04:36.206Z,27.80
2019-02-24T06:05:14.920Z,27.70
2019-02-24T06:05:53.982Z,27.70
2019-02-24T06:06:32.629Z,27.70
2019-02-24T06:07:11.367Z,27.60
2019-02-24T06:07:50.229Z,27.60
2019-02-24T06:08:28.962Z,27.60
2019-02-24T06:09:08.431Z,27.50
2019-02-24T06:09:47.146Z,27.50
2019-02-24T06:10:26.412Z,27.50
2019-02-24T06:11:05.279Z,27.50
2019-02-24T06:11:44.379Z,27.50
2019-02-24T06:12:22.994Z,27.50
2019-02-24T06:13:02.543Z,27.50
2019-02-24T06:13:41.749Z,27.50
2019-02-24T06:14:20.898Z,27.50
2019-02-24T06:14:59.780Z,27.60
2019-02-24T06:15:38.568Z,27.60
2019-02-24T06:16:17.441Z,27.60
2019-02-24T06:16:56.247Z,27.70
2019-02-24T06:17:35.114Z,27.80
2019-02-24T06:18:14.478Z,27.80
2019-02-24T06:18:53.767Z,27.90
2019-02-24T06:19:32.470Z,27.90
2019-02-24T06:20:11.292Z,28.00
2019-02-24T06:20:50.196Z,28.00
2019-02-24T06:21:29.558Z,28.00
2019-02-24T06:22:08.269Z,28.00
2019-02-24T06:22:46.948Z,28.10
2019-02-24T06:23:25.629Z,28.10
2019-02-24T06:24:04.418Z,28.10
2019-02-24T06:24:43.903Z,28.10
2019-02-24T06:25:23.127Z,28.20
2019-02-24T06:26:02.180Z,28.20
2019-02-24T06:26:40.843Z,28.20
2019-02-24T06:27:19.584Z,28.20
2019-02-24T06:27:58.305Z,28.30
2019-02-24T06:28:37.064Z,28.30
2019-02-24T06:29:18.241Z,28.30
2019-02-24T06:30:04.557Z,28.40
2019-02-24T06:30:39.170Z,28.40
2019-02-24T06:31:17.879Z,28.40
2019-02-24T06:31:56.652Z,28.40
2019-02-24T06:32:36.675Z,28.40
2019-02-24T06:33:15.393Z,28.40
2019-02-24T06:33:54.104Z,28.50
2019-02-24T06:34:33.985Z,28.50
2019-02-24T06:35:12.541Z,28.50
2019-02-24T06:35:51.255Z,28.50
2019-02-24T06:36:29.942Z,28.50
2019-02-24T06:37:08.591Z,28.50
2019-02-24T06:37:47.345Z,28.50
2019-02-24T06:38:26.472Z,28.60
2019-02-24T06:39:05.262Z,28.60
2019-02-24T06:39:43.975Z,28.60
2019-02-24T06:40:23.269Z,28.60
2019-02-24T06:41:01.874Z,28.60
2019-02-24T06:41:40.575Z,28.60
2019-02-24T06:42:19.248Z,28.60
2019-02-24T06:42:57.992Z,28.60
2019-02-24T06:43:36.736Z,28.70
2019-02-24T06:44:15.520Z,28.70
2019-02-24T06:44:54.173Z,28.70
2019-02-24T06:45:32.848Z,28.70
2019-02-24T06:46:11.554Z,28.70
2019-02-24T06:46:50.405Z,28.70
2019-02-24T06:47:29.091Z,28.70
2019-02-24T06:48:07.792Z,28.70
2019-02-24T06:48:46.497Z,28.80
2019-02-24T06:49:25.231Z,28.80
2019-02-24T06:50:03.854Z,28.80
2019-02-24T06:51:09.856Z,28.80
2019-02-24T06:51:48.579Z,28.80
2019-02-24T06:52:28.095Z,28.80
2019-02-24T06:53:06.962Z,28.90
2019-02-24T06:53:45.582Z,28.90
2019-02-24T06:54:24.363Z,28.90
2019-02-24T06:55:04.315Z,28.90
2019-02-24T06:55:43.008Z,28.90
2019-02-24T06:56:22.246Z,28.90
2019-02-24T06:57:01.038Z,28.90
2019-02-24T06:57:39.645Z,28.90
2019-02-24T06:58:18.559Z,28.90
2019-02-24T06:58:57.968Z,28.90
2019-02-24T06:59:37.030Z,29.00
2019-02-24T07:00:16.128Z,29.00
2019-02-24T07:00:54.850Z,29.00
2019-02-24T07:01:33.639Z,29.00
2019-02-24T07:02:12.306Z,29.00
2019-02-24T07:02:51.706Z,29.00
2019-02-24T07:03:30.411Z,29.00
2019-02-24T07:04:09.304Z,29.00
2019-02-24T07:04:48.331Z,29.00
2019-02-24T07:05:27.455Z,29.00
2019-02-24T07:06:06.541Z,29.00
2019-02-24T07:06:45.818Z,29.00
2019-02-24T07:07:25.780Z,29.00
2019-02-24T07:08:04.516Z,29.10
2019-02-24T07:08:43.199Z,29.00
2019-02-24T07:09:22.387Z,29.10
2019-02-24T07:10:01.069Z,29.10
2019-02-24T07:10:39.678Z,29.10
2019-02-24T07:11:18.707Z,29.10
2019-02-24T07:11:58.041Z,29.10
2019-02-24T07:12:37.315Z,29.10
2019-02-24T07:13:16.471Z,29.10
2019-02-24T07:13:55.222Z,29.10
2019-02-24T07:14:52.579Z,29.10
2019-02-24T07:15:32.615Z,29.10
2019-02-24T07:16:11.345Z,29.10
2019-02-24T07:16:50.236Z,29.20
2019-02-24T07:17:29.414Z,29.20
2019-02-24T07:18:08.585Z,29.20
2019-02-24T07:18:47.765Z,29.20
2019-02-24T07:19:26.351Z,29.20
2019-02-24T07:20:05.084Z,29.20
2019-02-24T07:20:43.807Z,29.20
2019-02-24T07:21:22.907Z,29.20
2019-02-24T07:22:01.573Z,29.20
2019-02-24T07:22:40.343Z,29.20
2019-02-24T07:23:19.538Z,29.20
2019-02-24T07:23:59.036Z,29.20
2019-02-24T07:24:38.330Z,29.30
2019-02-24T07:25:17.037Z,29.30
2019-02-24T07:25:56.448Z,29.30
2019-02-24T07:26:35.740Z,29.30
2019-02-24T07:27:14.387Z,29.30
2019-02-24T07:27:53.633Z,29.30
2019-02-24T07:28:32.809Z,29.30
2019-02-24T07:29:11.458Z,29.30
2019-02-24T07:30:08.928Z,29.30
2019-02-24T07:30:48.208Z,29.30
2019-02-24T07:31:26.774Z,29.30
2019-02-24T07:32:05.477Z,29.30
2019-02-24T07:32:44.225Z,29.30
2019-02-24T07:33:23.423Z,29.30
2019-02-24T07:34:02.154Z,29.40
2019-02-24T07:34:41.041Z,29.40
2019-02-24T07:35:20.206Z,29.40
2019-02-24T07:35:59.954Z,29.40
2019-02-24T07:36:39.133Z,29.40
2019-02-24T07:37:18.144Z,29.40
2019-02-24T07:37:57.724Z,29.40
2019-02-24T07:38:36.399Z,29.40
2019-02-24T07:39:15.127Z,29.40
2019-02-24T07:39:53.866Z,29.40
2019-02-24T07:40:32.644Z,29.40
2019-02-24T07:41:11.518Z,29.40
2019-02-24T07:41:50.479Z,29.40
2019-02-24T07:42:29.923Z,29.40
2019-02-24T07:43:09.064Z,29.40
2019-02-24T07:43:48.190Z,29.50
2019-02-24T07:44:27.319Z,29.50
2019-02-24T07:45:06.866Z,29.50
2019-02-24T07:45:46.149Z,29.50
2019-02-24T07:46:25.376Z,29.50
2019-02-24T07:47:04.026Z,29.50
2019-02-24T07:47:42.666Z,29.50
2019-02-24T07:48:21.336Z,29.50
2019-02-24T07:49:00.907Z,29.50
2019-02-24T07:49:40.280Z,29.50
2019-02-24T07:50:19.769Z,29.50
2019-02-24T07:50:59.341Z,29.50
2019-02-24T07:51:38.728Z,29.50
2019-02-24T07:52:17.700Z,29.50
2019-02-24T07:52:57.069Z,29.50
2019-02-24T07:53:36.032Z,29.60
2019-02-24T07:54:15.192Z,29.50
2019-02-24T07:54:53.841Z,29.60
2019-02-24T07:55:32.423Z,29.50
2019-02-24T07:56:11.549Z,29.60
2019-02-24T07:56:50.744Z,29.60
2019-02-24T07:57:29.443Z,29.60
2019-02-24T07:58:08.575Z,29.60
2019-02-24T07:58:47.710Z,29.60
2019-02-24T07:59:26.631Z,29.60
2019-02-24T08:00:05.337Z,29.60
2019-02-24T08:00:44.076Z,29.60
2019-02-24T08:01:22.980Z,29.60
2019-02-24T08:02:01.796Z,29.60
2019-02-24T08:02:41.026Z,29.60
2019-02-24T08:03:19.617Z,29.60
2019-02-24T08:03:58.279Z,29.60
2019-02-24T08:04:37.246Z,29.60
2019-02-24T08:05:15.984Z,29.60
2019-02-24T08:05:54.659Z,29.70
2019-02-24T08:06:34.247Z,29.70
2019-02-24T08:07:13.402Z,29.70
2019-02-24T08:07:52.512Z,29.70
2019-02-24T08:08:31.777Z,29.70
2019-02-24T08:09:11.223Z,29.70
2019-02-24T08:09:50.030Z,29.70
2019-02-24T08:10:29.334Z,29.70
2019-02-24T08:11:08.104Z,29.70
2019-02-24T08:11:46.750Z,29.70
2019-02-24T08:12:25.435Z,29.70
2019-02-24T08:13:04.569Z,29.70
2019-02-24T08:13:44.089Z,29.70
2019-02-24T08:14:23.345Z,29.70
2019-02-24T08:15:02.487Z,29.70
2019-02-24T08:15:41.921Z,29.70
2019-02-24T08:16:21.314Z,29.70
2019-02-24T08:17:00.646Z,29.80
2019-02-24T08:17:40.129Z,29.80
2019-02-24T08:18:19.393Z,29.70
2019-02-24T08:18:58.841Z,29.70
2019-02-24T08:19:37.473Z,29.80
2019-02-24T08:20:16.150Z,29.80
2019-02-24T08:20:55.104Z,29.80
2019-02-24T08:21:33.856Z,29.80
2019-02-24T08:22:13.200Z,29.80
2019-02-24T08:22:52.329Z,29.80
2019-02-24T08:23:30.870Z,29.80
2019-02-24T08:24:10.153Z,29.80
2019-02-24T08:24:49.445Z,29.80
2019-02-24T08:25:28.870Z,29.80
2019-02-24T08:26:07.506Z,29.80